createdAt,value
2023-04-26T00:01:51.483Z,5.00
2023-04-26T00:06:54.898Z,6.40
2023-04-26T00:11:58.006Z,5.80
2023-04-26T00:17:02.953Z,6.60
2023-04-26T00:22:06.644Z,5.70
2023-04-26T00:27:10.864Z,5.60
2023-04-26T00:32:13.970Z,6.10
2023-04-26T00:37:17.138Z,6.10
2023-04-26T00:42:20.143Z,6.70
2023-04-26T00:47:29.742Z,6.40
2023-04-26T00:52:32.818Z,6.90
2023-04-26T00:57:35.928Z,6.30
2023-04-26T01:02:39.179Z,7.10
2023-04-26T01:07:42.447Z,6.30
2023-04-26T01:12:46.062Z,6.70
2023-04-26T01:17:49.935Z,7.80
2023-04-26T01:22:52.898Z,7.10
2023-04-26T01:27:55.826Z,6.10
2023-04-26T01:32:58.832Z,7.10
2023-04-26T01:38:02.022Z,6.50
2023-04-26T01:43:05.023Z,6.50
2023-04-26T01:48:09.115Z,7.10
2023-04-26T01:53:12.466Z,6.50
2023-04-26T01:58:15.577Z,10.90
2023-04-26T02:03:18.592Z,12.00
2023-04-26T02:08:21.591Z,13.10
2023-04-26T02:13:24.901Z,9.70
2023-04-26T02:18:27.809Z,7.30
2023-04-26T02:23:30.713Z,6.80
2023-04-26T02:28:33.620Z,7.10
2023-04-26T02:33:36.830Z,5.80
2023-04-26T02:38:39.846Z,7.10
2023-04-26T02:43:42.745Z,6.30
2023-04-26T02:48:45.757Z,6.30
2023-04-26T02:53:48.758Z,5.80
2023-04-26T02:58:52.711Z,5.30
2023-04-26T03:03:56.364Z,5.40
2023-04-26T03:08:59.510Z,5.90
2023-04-26T03:14:02.523Z,6.00
2023-04-26T03:19:05.732Z,5.40
2023-04-26T03:24:08.838Z,5.60
2023-04-26T03:29:12.977Z,6.90
2023-04-26T03:34:15.992Z,5.70
2023-04-26T03:39:19.299Z,6.60
2023-04-26T03:44:22.304Z,5.60
2023-04-26T03:49:25.411Z,5.10
2023-04-26T03:54:28.318Z,6.10
2023-04-26T03:59:34.703Z,5.20
2023-04-26T04:04:37.943Z,4.20
2023-04-26T04:09:41.017Z,4.50
2023-04-26T04:14:43.927Z,4.20
2023-04-26T04:19:46.825Z,4.40
2023-04-26T04:24:49.837Z,4.00
2023-04-26T04:29:56.257Z,4.70
2023-04-26T04:34:59.840Z,4.40
2023-04-26T04:40:03.057Z,3.90
2023-04-26T04:45:07.030Z,3.90
2023-04-26T04:50:10.297Z,6.50
2023-04-26T04:55:13.448Z,5.90
2023-04-26T05:00:17.382Z,3.80
2023-04-26T05:05:20.902Z,3.10
2023-04-26T05:10:23.859Z,3.20
2023-04-26T05:15:27.232Z,3.20
2023-04-26T05:20:31.222Z,2.80
2023-04-26T05:25:37.589Z,3.00
2023-04-26T05:30:40.994Z,3.10
2023-04-26T05:35:44.013Z,2.60
2023-04-26T05:40:48.455Z,2.90
2023-04-26T05:45:56.638Z,2.40
2023-04-26T05:50:59.625Z,2.70
2023-04-26T05:56:02.694Z,3.00
2023-04-26T06:01:06.416Z,2.60
2023-04-26T06:06:09.829Z,2.70
2023-04-26T06:11:12.846Z,2.80
2023-04-26T06:16:16.290Z,2.60
2023-04-26T06:21:20.079Z,3.00
2023-04-26T06:26:23.097Z,3.00
2023-04-26T06:31:26.430Z,2.80
2023-04-26T06:36:29.716Z,2.50
2023-04-26T06:41:32.831Z,3.20
2023-04-26T06:46:35.959Z,2.70
2023-04-26T06:51:39.247Z,3.00
2023-04-26T06:56:42.153Z,3.40
2023-04-26T07:01:45.307Z,2.80
2023-04-26T07:06:49.117Z,3.00
2023-04-26T07:11:52.313Z,2.60
2023-04-26T07:16:55.308Z,2.80
2023-04-26T07:21:58.525Z,2.50
2023-04-26T07:27:02.240Z,3.20
2023-04-26T07:32:05.759Z,3.00
2023-04-26T07:37:09.381Z,3.00
2023-04-26T07:42:12.692Z,2.70
2023-04-26T07:47:16.119Z,3.10
2023-04-26T07:52:19.321Z,3.30
2023-04-26T07:57:22.427Z,3.20
2023-04-26T08:02:33.231Z,4.10
2023-04-26T08:07:46.872Z,5.30
2023-04-26T08:12:50.390Z,3.40
2023-04-26T08:17:53.625Z,3.70
2023-04-26T08:22:57.447Z,3.30
2023-04-26T08:28:01.001Z,3.40
2023-04-26T08:33:04.086Z,3.00
2023-04-26T08:38:07.475Z,3.30
2023-04-26T08:43:11.294Z,3.30
2023-04-26T08:48:16.404Z,2.90
2023-04-26T08:53:20.076Z,2.70
2023-04-26T08:58:23.898Z,2.60
2023-04-26T09:03:27.597Z,3.60
2023-04-26T09:08:30.940Z,2.50
2023-04-26T09:13:34.157Z,2.40
2023-04-26T09:18:49.993Z,2.60
2023-04-26T09:24:01.900Z,2.70
2023-04-26T09:29:19.163Z,2.40
2023-04-26T09:34:22.537Z,2.80
2023-04-26T09:39:32.905Z,2.50
2023-04-26T09:49:50.978Z,2.80
2023-04-26T09:54:55.133Z,3.50
2023-04-26T09:59:58.357Z,4.00
2023-04-26T10:05:03.138Z,4.20
2023-04-26T10:10:07.977Z,3.90
2023-04-26T10:15:12.196Z,3.20
2023-04-26T10:20:18.466Z,3.70
2023-04-26T10:25:21.876Z,3.10
2023-04-26T10:30:25.102Z,2.90
2023-04-26T10:35:30.506Z,3.40
2023-04-26T10:40:40.442Z,2.90
2023-04-26T10:45:45.904Z,2.70
2023-04-26T10:51:13.470Z,2.80
2023-04-26T10:56:25.890Z,2.90
2023-04-26T11:01:30.845Z,3.10
2023-04-26T11:06:58.065Z,3.10
2023-04-26T11:12:01.141Z,2.60
2023-04-26T11:17:08.395Z,3.70
2023-04-26T11:22:11.549Z,2.80
2023-04-26T11:27:14.759Z,2.80
2023-04-26T11:32:20.326Z,2.60
2023-04-26T11:37:23.431Z,2.30
2023-04-26T11:42:26.952Z,2.30
2023-04-26T11:47:31.597Z,1.90
2023-04-26T11:52:34.705Z,2.30
2023-04-26T11:57:37.914Z,1.70
2023-04-26T12:02:48.282Z,2.00
2023-04-26T12:07:57.038Z,2.40
2023-04-26T12:13:00.476Z,2.40
2023-04-26T12:18:11.806Z,2.30
2023-04-26T12:23:17.456Z,2.00
2023-04-26T12:28:20.977Z,2.20
2023-04-26T12:33:25.692Z,2.20
2023-04-26T12:38:28.899Z,2.40
2023-04-26T12:43:32.528Z,2.70
2023-04-26T12:48:36.403Z,2.40
2023-04-26T12:53:39.462Z,3.50
2023-04-26T12:58:42.773Z,2.40
2023-04-26T13:03:46.685Z,3.30
2023-04-26T13:08:50.017Z,3.20
2023-04-26T13:13:53.090Z,2.40
2023-04-26T13:18:56.571Z,2.40
2023-04-26T13:23:59.751Z,2.50
2023-04-26T13:29:04.520Z,3.40
2023-04-26T13:34:07.824Z,3.40
2023-04-26T13:39:11.122Z,2.70
2023-04-26T13:44:15.865Z,3.20
2023-04-26T13:49:18.979Z,3.70
2023-04-26T13:54:22.803Z,2.40
2023-04-26T13:59:27.282Z,2.40
2023-04-26T14:04:31.156Z,2.30
2023-04-26T14:09:34.690Z,3.10
2023-04-26T14:14:38.006Z,2.60
2023-04-26T14:19:42.608Z,2.90
2023-04-26T14:24:46.374Z,2.60
2023-04-26T14:29:49.807Z,2.70
2023-04-26T14:34:53.012Z,2.10
2023-04-26T14:39:56.416Z,2.60
2023-04-26T14:45:00.353Z,2.70
2023-04-26T14:50:04.728Z,2.30
2023-04-26T14:55:08.864Z,2.00
2023-04-26T15:00:15.636Z,6.80
2023-04-26T15:05:18.936Z,6.30
2023-04-26T15:10:22.134Z,3.10
2023-04-26T15:15:25.247Z,3.10
2023-04-26T15:20:28.597Z,7.30
2023-04-26T15:25:35.191Z,3.90
2023-04-26T15:30:38.252Z,3.00
2023-04-26T15:35:41.770Z,2.70
2023-04-26T15:40:45.291Z,3.00
2023-04-26T15:45:50.066Z,2.30
2023-04-26T15:50:57.172Z,2.50
2023-04-26T15:56:00.480Z,2.30
2023-04-26T16:01:03.807Z,2.10
2023-04-26T16:06:08.828Z,3.20
2023-04-26T16:11:11.937Z,2.20
2023-04-26T16:16:15.179Z,3.10
2023-04-26T16:21:18.252Z,3.20
2023-04-26T16:26:22.389Z,7.40
2023-04-26T16:31:26.709Z,2.10
2023-04-26T16:36:30.148Z,1.80
2023-04-26T16:41:33.574Z,3.00
2023-04-26T16:46:37.198Z,3.50
2023-04-26T16:51:41.115Z,2.30
2023-04-26T16:56:44.221Z,2.90
2023-04-26T17:01:50.845Z,2.70
2023-04-26T17:06:55.041Z,2.40
2023-04-26T17:11:58.365Z,4.50
2023-04-26T17:17:01.460Z,2.80
2023-04-26T17:22:06.418Z,3.60
2023-04-26T17:27:09.538Z,5.40
2023-04-26T17:32:12.777Z,3.50
2023-04-26T17:37:15.847Z,2.20
2023-04-26T17:42:19.062Z,1.60
2023-04-26T17:47:22.481Z,1.80
2023-04-26T17:52:25.690Z,1.50
2023-04-26T17:57:28.791Z,2.20
2023-04-26T18:02:32.134Z,2.10
2023-04-26T18:07:35.729Z,2.40
2023-04-26T18:12:38.931Z,3.00
2023-04-26T18:17:42.118Z,2.10
2023-04-26T18:22:45.253Z,2.40
2023-04-26T18:27:49.103Z,1.80
2023-04-26T18:32:53.374Z,1.70
2023-04-26T18:37:57.352Z,2.00
2023-04-26T18:43:00.675Z,1.80
2023-04-26T18:48:04.204Z,1.70
2023-04-26T18:53:07.391Z,2.10
2023-04-26T18:58:10.952Z,1.70
2023-04-26T19:03:14.174Z,1.80
2023-04-26T19:08:17.825Z,1.70
2023-04-26T19:13:21.115Z,1.80
2023-04-26T19:18:24.385Z,1.60
2023-04-26T19:23:27.593Z,1.90
2023-04-26T19:28:31.275Z,2.60
2023-04-26T19:33:34.318Z,2.60
2023-04-26T19:38:37.524Z,3.00
2023-04-26T19:43:40.746Z,2.60
2023-04-26T19:48:43.951Z,2.60
2023-04-26T19:53:47.165Z,3.60
2023-04-26T19:58:50.377Z,3.60
2023-04-26T20:03:53.772Z,2.70
2023-04-26T20:08:57.015Z,2.10
2023-04-26T20:14:00.416Z,2.80
2023-04-26T20:19:03.726Z,1.90
2023-04-26T20:24:07.309Z,2.90
2023-04-26T20:29:10.355Z,2.40
2023-04-26T20:34:13.362Z,2.80
2023-04-26T20:39:16.770Z,3.10
2023-04-26T20:44:19.877Z,2.30
2023-04-26T20:49:23.269Z,2.80
2023-04-26T20:54:26.409Z,3.30
2023-04-26T20:59:29.518Z,2.40
2023-04-26T21:04:32.886Z,2.10
2023-04-26T21:09:36.150Z,2.40
2023-04-26T21:14:39.253Z,2.20
2023-04-26T21:19:42.853Z,2.60
2023-04-26T21:24:45.984Z,3.20
2023-04-26T21:29:48.989Z,3.10
2023-04-26T21:34:52.097Z,3.40
2023-04-26T21:39:55.108Z,3.40
2023-04-26T21:44:58.113Z,2.90
2023-04-26T21:50:01.336Z,2.60
2023-04-26T21:55:04.917Z,2.40
2023-04-26T22:00:11.814Z,3.70
2023-04-26T22:05:14.745Z,3.80
2023-04-26T22:10:18.242Z,4.60
2023-04-26T22:15:21.583Z,3.60
2023-04-26T22:20:24.728Z,3.80
2023-04-26T22:25:27.692Z,3.60
2023-04-26T22:30:30.635Z,3.20
2023-04-26T22:35:33.618Z,2.70
2023-04-26T22:40:36.817Z,2.40
2023-04-26T22:45:39.838Z,2.90
2023-04-26T22:50:43.147Z,2.20
2023-04-26T22:55:46.450Z,2.10
2023-04-26T23:00:49.473Z,2.30
2023-04-26T23:05:52.571Z,2.50
2023-04-26T23:10:55.474Z,2.30
2023-04-26T23:15:58.480Z,2.40
2023-04-26T23:21:01.698Z,2.90
2023-04-26T23:26:08.241Z,2.40
2023-04-26T23:31:11.546Z,3.20
2023-04-26T23:36:14.600Z,3.90
2023-04-26T23:41:17.502Z,3.20
2023-04-26T23:46:20.548Z,3.00
2023-04-26T23:51:23.621Z,3.40
2023-04-26T23:56:26.623Z,3.40
